createdAt,value
2022-07-29T02:04:38.221Z,16.90
2022-07-29T02:07:30.636Z,16.90
2022-07-29T02:10:25.670Z,16.90
2022-07-29T02:13:19.408Z,16.90
2022-07-29T02:16:13.401Z,16.90
2022-07-29T02:19:16.395Z,17.00
2022-07-29T02:22:07.889Z,16.90
2022-07-29T02:25:13.838Z,16.90
2022-07-29T02:28:05.914Z,16.90
2022-07-29T02:31:00.760Z,16.80
2022-07-29T02:34:07.816Z,17.00
2022-07-29T02:37:00.613Z,16.80
2022-07-29T02:40:01.492Z,16.80
2022-07-29T02:42:49.921Z,16.90
2022-07-29T02:45:51.906Z,16.80
2022-07-29T02:48:56.438Z,16.70
2022-07-29T02:51:55.937Z,16.80
2022-07-29T02:54:51.322Z,16.70
2022-07-29T02:57:54.438Z,16.70
2022-07-29T03:00:45.972Z,16.70
2022-07-29T03:03:49.076Z,16.70
2022-07-29T03:06:41.002Z,16.70
2022-07-29T03:09:29.741Z,16.70
2022-07-29T03:12:19.217Z,16.70
2022-07-29T03:15:19.931Z,16.60
2022-07-29T03:18:23.109Z,16.60
2022-07-29T03:21:11.556Z,16.60
2022-07-29T03:24:05.573Z,16.70
2022-07-29T03:27:09.196Z,16.70
2022-07-29T03:29:56.831Z,16.70
2022-07-29T03:32:44.614Z,16.60
2022-07-29T03:35:35.010Z,16.50
2022-07-29T03:38:49.549Z,16.50
2022-07-29T03:41:41.142Z,16.60
2022-07-29T03:44:30.415Z,16.60
2022-07-29T03:47:39.331Z,16.70
2022-07-29T03:50:36.091Z,16.70
2022-07-29T03:53:31.966Z,16.60
2022-07-29T03:56:23.627Z,16.70
2022-07-29T04:00:08.051Z,16.80
2022-07-29T04:02:33.937Z,16.70
2022-07-29T05:40:05.152Z,16.60
2022-07-29T05:43:08.630Z,16.90
2022-07-29T05:45:56.536Z,17.10
2022-07-29T05:48:47.630Z,17.10
2022-07-29T05:51:37.521Z,17.20
2022-07-29T05:54:34.821Z,17.10
2022-07-29T05:57:27.995Z,17.10
2022-07-29T06:00:24.375Z,17.10
2022-07-29T06:03:14.410Z,17.80
2022-07-29T06:06:05.888Z,17.60
2022-07-29T06:08:53.889Z,17.50
2022-07-29T06:11:53.788Z,17.70
2022-07-29T06:14:44.920Z,17.60
2022-07-29T06:17:36.908Z,17.50
2022-07-29T06:20:37.885Z,17.80
2022-07-29T06:23:28.987Z,17.80
2022-07-29T06:26:30.898Z,17.90
2022-07-29T06:29:19.409Z,17.80
2022-07-29T06:32:12.013Z,17.70
2022-07-29T06:38:13.795Z,17.50
2022-07-29T06:41:25.440Z,17.70
2022-07-29T06:44:18.082Z,17.80
2022-07-29T06:47:10.725Z,17.80
2022-07-29T06:50:01.139Z,18.00
2022-07-29T06:52:53.813Z,17.60
2022-07-29T06:55:55.988Z,17.70
2022-07-29T06:58:56.407Z,18.00
2022-07-29T07:01:59.695Z,18.20
2022-07-29T07:04:53.142Z,18.20
2022-07-29T07:07:58.175Z,18.40
2022-07-29T07:11:00.826Z,18.30
2022-07-29T07:14:00.646Z,18.10
2022-07-29T07:16:54.105Z,18.10
2022-07-29T07:22:55.534Z,18.30
2022-07-29T07:25:56.795Z,18.10
2022-07-29T07:28:56.826Z,18.40
2022-07-29T07:32:14.209Z,18.20
2022-07-29T07:35:09.244Z,18.20
2022-07-29T07:38:03.267Z,18.80
2022-07-29T07:45:12.677Z,19.00
2022-07-29T07:51:19.112Z,19.10
2022-07-29T07:57:20.976Z,19.50
2022-07-29T08:26:29.432Z,19.80
2022-07-29T08:29:24.310Z,19.50
2022-07-29T08:32:26.275Z,19.70
2022-07-29T08:35:34.907Z,19.60
2022-07-29T08:38:32.434Z,19.20
2022-07-29T08:41:28.493Z,19.40
2022-07-29T08:44:30.818Z,19.50
2022-07-29T08:47:19.693Z,19.50
2022-07-29T08:50:14.288Z,19.50
2022-07-29T08:53:10.852Z,19.70
2022-07-29T08:56:01.693Z,20.10
2022-07-29T08:58:51.903Z,20.30
2022-07-29T09:01:47.392Z,20.80
2022-07-29T09:04:37.250Z,21.20
2022-07-29T09:07:25.077Z,21.20
2022-07-29T09:10:25.995Z,21.20
2022-07-29T09:13:14.682Z,21.00
2022-07-29T09:19:45.551Z,21.00
2022-07-29T09:22:41.898Z,20.60
2022-07-29T09:25:45.361Z,20.50
2022-07-29T09:28:34.740Z,20.70
2022-07-29T09:31:39.440Z,20.90
2022-07-29T09:34:36.629Z,21.00
2022-07-29T09:37:33.431Z,21.10
2022-07-29T09:47:53.571Z,22.80
2022-07-29T09:50:51.236Z,23.00
2022-07-29T09:53:45.414Z,22.90
2022-07-29T09:57:03.781Z,22.20
2022-07-29T10:00:29.833Z,22.20
2022-07-29T10:03:29.516Z,22.30
2022-07-29T10:06:27.397Z,22.20
2022-07-29T10:09:23.675Z,22.20
2022-07-29T10:12:23.080Z,22.20
2022-07-29T10:15:40.994Z,22.40
2022-07-29T10:18:35.763Z,22.50
2022-07-29T10:21:35.182Z,22.30
2022-07-29T10:24:32.482Z,22.30
2022-07-29T10:27:24.740Z,22.30
2022-07-29T10:30:13.807Z,22.50
2022-07-29T10:33:30.586Z,22.60
2022-07-29T10:37:03.703Z,22.60
2022-07-29T10:40:01.858Z,22.90
2022-07-29T10:42:54.845Z,22.90
2022-07-29T10:45:45.727Z,22.90
2022-07-29T10:48:34.100Z,23.10
2022-07-29T10:51:26.844Z,23.20
2022-07-29T10:54:48.826Z,23.00
2022-07-29T10:57:52.421Z,23.40
2022-07-29T11:00:51.985Z,23.00
2022-07-29T11:03:53.657Z,23.30
2022-07-29T11:07:04.930Z,23.30
2022-07-29T11:10:20.514Z,23.60
2022-07-29T11:13:52.207Z,24.00
2022-07-29T11:17:00.584Z,23.60
2022-07-29T11:19:52.268Z,23.60
2022-07-29T11:22:46.001Z,23.90
2022-07-29T11:25:43.009Z,24.50
2022-07-29T11:29:25.682Z,24.70
2022-07-29T11:32:23.439Z,24.70
2022-07-29T11:38:32.347Z,24.90
2022-07-29T11:41:30.242Z,24.90
2022-07-29T11:44:39.980Z,24.90
2022-07-29T11:47:31.017Z,24.90
2022-07-29T11:50:35.302Z,25.20
2022-07-29T11:53:23.978Z,24.70
2022-07-29T11:56:16.413Z,25.10
2022-07-29T11:59:10.478Z,25.40
2022-07-29T12:02:33.230Z,25.70
2022-07-29T12:05:12.142Z,25.60
2022-07-29T12:08:12.608Z,25.80
2022-07-29T12:11:03.535Z,25.80
2022-07-29T12:13:53.473Z,25.90
2022-07-29T12:16:41.754Z,25.80
2022-07-29T12:19:29.222Z,25.70
2022-07-29T12:22:30.442Z,25.80
2022-07-29T12:25:36.472Z,25.60
2022-07-29T12:28:27.465Z,25.50
2022-07-29T12:31:43.449Z,25.40
2022-07-29T12:34:27.462Z,24.90
2022-07-29T12:37:15.699Z,24.90
2022-07-29T12:40:06.153Z,25.10
2022-07-29T12:46:20.597Z,25.10
2022-07-29T12:49:08.945Z,24.90
2022-07-29T12:52:02.606Z,25.00
2022-07-29T12:54:55.950Z,25.10
2022-07-29T12:58:01.727Z,24.70
2022-07-29T13:01:17.093Z,24.70
2022-07-29T13:04:10.702Z,24.70
2022-07-29T13:07:10.338Z,25.00
2022-07-29T13:10:24.469Z,24.90
2022-07-29T13:13:28.270Z,24.60
2022-07-29T13:16:17.228Z,24.10
2022-07-29T13:19:13.293Z,24.70
2022-07-29T14:13:24.286Z,26.00
2022-07-29T14:16:16.692Z,26.30
2022-07-29T14:19:04.867Z,25.80
2022-07-29T14:21:57.426Z,25.50
2022-07-29T14:25:05.088Z,26.00
2022-07-29T14:28:07.227Z,25.40
2022-07-29T14:30:57.835Z,25.50
2022-07-29T14:33:57.845Z,24.70
2022-07-29T14:36:50.346Z,25.60
2022-07-29T14:39:43.114Z,26.00
2022-07-29T14:42:39.340Z,26.10
2022-07-29T14:45:29.197Z,26.10
2022-07-29T14:48:25.671Z,26.20
2022-07-29T14:51:32.508Z,26.40
2022-07-29T14:54:40.859Z,26.20
2022-07-29T14:57:28.802Z,26.20
2022-07-29T15:00:27.257Z,26.00
2022-07-29T15:03:24.117Z,25.70
2022-07-29T15:06:13.392Z,26.00
2022-07-29T15:09:01.038Z,25.70
2022-07-29T15:11:48.758Z,26.00
2022-07-29T15:14:40.379Z,26.20
2022-07-29T15:17:31.289Z,25.90
2022-07-29T15:20:28.217Z,26.00
2022-07-29T15:23:19.046Z,25.60
2022-07-29T15:26:06.654Z,25.40
2022-07-29T15:29:03.636Z,25.40
2022-07-29T15:31:58.509Z,26.00
2022-07-29T15:34:52.381Z,26.10
2022-07-29T15:37:48.607Z,25.50
2022-07-29T15:40:52.988Z,25.40
2022-07-29T15:43:54.074Z,25.40
2022-07-29T15:47:09.551Z,25.00
2022-07-29T15:49:57.660Z,25.20
2022-07-29T15:52:50.144Z,25.00
2022-07-29T15:55:40.700Z,24.70
2022-07-29T15:58:32.326Z,24.50
2022-07-29T16:01:20.081Z,24.60
2022-07-29T16:04:14.815Z,24.60
2022-07-29T16:07:03.784Z,24.50
2022-07-29T16:09:53.346Z,24.10
2022-07-29T16:12:41.479Z,23.70
2022-07-29T16:15:29.481Z,23.60
2022-07-29T16:18:23.177Z,23.70
2022-07-29T16:22:06.923Z,23.60
2022-07-29T16:24:57.526Z,23.60
2022-07-29T16:27:48.153Z,23.60
2022-07-29T16:30:36.611Z,24.00
2022-07-29T16:33:24.745Z,24.20
2022-07-29T16:36:13.171Z,24.00
2022-07-29T16:39:07.149Z,23.90
2022-07-29T16:41:59.534Z,24.00
2022-07-29T16:44:54.504Z,23.70
2022-07-29T16:47:42.544Z,23.50
2022-07-29T16:50:31.815Z,23.60
2022-07-29T16:53:21.931Z,23.70
2022-07-29T16:56:14.272Z,23.50
2022-07-29T16:59:02.504Z,23.30
2022-07-29T17:01:52.527Z,23.40
2022-07-29T17:04:45.314Z,23.20
2022-07-29T17:07:34.573Z,23.30
2022-07-29T17:10:27.746Z,23.40
2022-07-29T17:13:18.535Z,23.50
2022-07-29T17:16:06.639Z,23.60
2022-07-29T17:18:55.544Z,23.30
2022-07-29T17:21:48.889Z,23.40
2022-07-29T17:24:37.305Z,23.40
2022-07-29T17:27:29.431Z,23.60
2022-07-29T17:30:25.051Z,23.80
2022-07-29T17:33:25.485Z,23.70
2022-07-29T17:36:29.174Z,23.50
2022-07-29T17:39:17.717Z,23.70
2022-07-29T17:42:15.976Z,23.80
2022-07-29T17:45:06.468Z,23.70
2022-07-29T17:48:15.528Z,23.70
2022-07-29T17:51:08.055Z,23.90
2022-07-29T17:54:07.355Z,23.90
2022-07-29T17:57:03.238Z,23.60
2022-07-29T18:00:09.042Z,23.80
2022-07-29T18:03:00.033Z,23.80
2022-07-29T18:05:51.949Z,23.60
2022-07-29T18:08:56.170Z,23.50
2022-07-29T18:11:47.587Z,23.60
2022-07-29T18:14:37.062Z,23.30
2022-07-29T18:17:52.938Z,23.20
2022-07-29T18:21:03.874Z,23.10
2022-07-29T18:23:52.942Z,23.10
2022-07-29T18:38:50.171Z,22.40
2022-07-29T18:41:50.311Z,22.40
2022-07-29T18:44:49.181Z,22.30
2022-07-29T18:47:40.567Z,22.30
2022-07-29T18:50:30.152Z,22.20
2022-07-29T18:53:22.935Z,22.20
2022-07-29T18:56:17.684Z,22.20
2022-07-29T18:59:19.463Z,22.10
2022-07-29T19:02:07.832Z,22.10
2022-07-29T19:05:00.233Z,22.10
2022-07-29T19:07:48.176Z,22.10
2022-07-29T19:10:35.766Z,22.00
2022-07-29T19:13:32.062Z,22.00
2022-07-29T19:16:20.485Z,22.00
2022-07-29T19:19:08.463Z,21.80
2022-07-29T19:21:59.051Z,21.80
2022-07-29T19:24:58.249Z,21.80
2022-07-29T19:27:52.316Z,21.80
2022-07-29T19:30:46.844Z,21.70
2022-07-29T19:33:36.797Z,21.70
2022-07-29T19:36:31.809Z,21.50
2022-07-29T19:39:35.302Z,21.50
2022-07-29T19:42:26.001Z,21.30
2022-07-29T19:45:20.005Z,21.20
2022-07-29T19:48:10.552Z,21.20
2022-07-29T19:51:03.522Z,21.20
2022-07-29T19:53:56.347Z,21.10
2022-07-29T19:56:57.558Z,21.10
2022-07-29T20:00:08.348Z,21.00
2022-07-29T20:03:08.280Z,21.10
2022-07-29T20:06:01.200Z,21.10
2022-07-29T20:08:55.388Z,20.90
2022-07-29T20:12:04.811Z,20.90
2022-07-29T20:14:54.118Z,21.00
2022-07-29T20:17:53.898Z,20.70
2022-07-29T20:20:44.741Z,20.80
2022-07-29T20:23:46.594Z,20.50
2022-07-29T20:26:39.312Z,20.50
2022-07-29T20:29:32.579Z,20.40
2022-07-29T20:32:23.382Z,20.40
2022-07-29T20:35:12.264Z,20.30
2022-07-29T20:38:00.721Z,20.20
2022-07-29T20:40:48.118Z,20.10
2022-07-29T20:43:36.137Z,20.00
2022-07-29T20:46:27.108Z,20.10
2022-07-29T20:49:17.600Z,20.20
2022-07-29T20:52:05.465Z,20.10
2022-07-29T20:54:53.351Z,20.00
2022-07-29T20:57:41.295Z,19.90
2022-07-29T21:00:29.419Z,19.90
2022-07-29T21:03:23.093Z,19.80
2022-07-29T21:06:17.691Z,19.80
2022-07-29T21:09:05.846Z,19.70
2022-07-29T21:11:53.676Z,19.70
2022-07-29T21:14:41.369Z,19.50
2022-07-29T21:17:31.985Z,19.60
2022-07-29T21:20:20.762Z,19.60
2022-07-29T21:23:08.303Z,19.50
2022-07-29T21:25:56.126Z,19.40
2022-07-29T21:28:44.467Z,19.30
2022-07-29T21:31:38.802Z,19.40
2022-07-29T21:34:37.077Z,19.40
